Time;durP1;ratioP1;P1;durP2;ratioP2;P2;SDS_P1;SDS_P2;PMS_P1;PMS_P2;Temp;Humidity;BMP_temperature;BMP_pressure;BME280_temperature;BME280_humidity;BME280_pressure;Samples;Min_cycle;Max_cycle;Signal;HPM_P1;HPM_P2
2023/03/12 00:02:11;;;;;;;6.33;2.67;;;;;;;;;;5032765;28;20478;-79
2023/03/12 00:04:38;;;;;;;4.87;3.00;;;;;;;;;;5031375;28;20470;-78
2023/03/12 00:07:07;;;;;;;6.33;3.50;;;-1.60;99.90;;;;;;5032582;28;20454;-78
2023/03/12 00:09:35;;;;;;;4.20;2.60;;;;;;;;;;5032091;28;20448;-78
2023/03/12 00:12:02;;;;;;;6.40;2.73;;;;;;;;;;5032213;28;20505;-78
2023/03/12 00:14:29;;;;;;;4.77;2.63;;;;;;;;;;5032413;28;20451;-78
2023/03/12 00:16:56;;;;;;;4.80;2.60;;;;;;;;;;5034490;28;20447;-81
2023/03/12 00:19:23;;;;;;;3.33;2.70;;;;;;;;;;5034817;28;20806;-78
2023/03/12 00:21:50;;;;;;;3.90;2.63;;;;;;;;;;5028262;28;20500;-78
2023/03/12 00:24:20;;;;;;;2.80;2.17;;;-1.50;99.90;;;;;;4995662;28;20450;-80
2023/03/12 00:26:47;;;;;;;3.30;2.73;;;;;;;;;;4996032;28;20458;-79
2023/03/12 00:29:14;;;;;;;4.00;2.63;;;;;;;;;;4995887;28;20862;-79
2023/03/12 00:31:41;;;;;;;5.10;2.60;;;;;;;;;;4996029;28;21050;-80
2023/03/12 00:34:10;;;;;;;2.50;2.30;;;-1.70;99.90;;;;;;4995316;28;20453;-82
2023/03/12 00:36:37;;;;;;;4.03;2.50;;;;;;;;;;4996458;28;20457;-80
2023/03/12 00:39:04;;;;;;;3.33;2.70;;;-1.70;99.90;;;;;;4996545;28;20452;-80
2023/03/12 00:41:33;;;;;;;3.63;2.60;;;-1.70;99.90;;;;;;4996488;28;20456;-81
2023/03/12 00:44:00;;;;;;;5.93;2.50;;;;;;;;;;4996461;28;20465;-80
2023/03/12 00:46:27;;;;;;;9.37;3.63;;;;;;;;;;4996284;28;20449;-80
2023/03/12 00:48:54;;;;;;;10.40;2.70;;;;;;;;;;4995070;28;20457;-80
2023/03/12 00:51:21;;;;;;;4.30;3.10;;;;;;;;;;4996295;28;20855;-80
2023/03/12 00:53:48;;;;;;;3.20;2.80;;;;;;;;;;4996161;28;20496;-80
2023/03/12 00:56:15;;;;;;;2.97;2.57;;;;;;;;;;4996382;28;20834;-79
2023/03/12 00:58:44;;;;;;;4.50;3.20;;;-1.70;99.90;;;;;;4996090;28;20508;-80
2023/03/12 01:01:11;;;;;;;4.17;2.67;;;;;;;;;;4996000;28;20453;-80
2023/03/12 01:03:38;;;;;;;7.33;2.93;;;;;;;;;;4997233;28;20424;-79
2023/03/12 01:06:05;;;;;;;6.10;3.80;;;;;;;;;;4996078;28;20479;-80
2023/03/12 01:08:32;;;;;;;8.40;3.80;;;;;;;;;;4996035;28;20456;-79
2023/03/12 01:10:59;;;;;;;7.10;2.80;;;;;;;;;;4995876;28;20485;-79
2023/03/12 01:13:27;;;;;;;8.37;3.93;;;;;;;;;;4995918;28;20967;-80
2023/03/12 01:15:55;;;;;;;5.63;3.50;;;-1.50;99.90;;;;;;4996465;28;20448;-80
2023/03/12 01:18:22;;;;;;;12.93;3.50;;;;;;;;;;4994595;28;20460;-80
2023/03/12 01:20:49;;;;;;;4.77;2.87;;;;;;;;;;4995760;28;20441;-80
2023/03/12 01:23:16;;;;;;;7.57;4.00;;;;;;;;;;4995891;28;20453;-80
2023/03/12 01:25:44;;;;;;;11.53;3.07;;;;;;;;;;4998167;28;20511;-79
2023/03/12 01:28:11;;;;;;;7.07;4.53;;;;;;;;;;4995611;28;20466;-80
2023/03/12 01:30:38;;;;;;;6.40;3.30;;;;;;;;;;4995367;28;20477;-80
2023/03/12 01:33:06;;;;;;;6.40;3.60;;;-1.20;99.90;;;;;;4994418;28;20803;-81
2023/03/12 01:35:36;;;;;;;11.43;3.50;;;-1.20;99.90;;;;;;4995535;28;20454;-79
2023/03/12 01:38:03;;;;;;;4.90;3.30;;;;;;;;;;4995363;28;20456;-79
2023/03/12 01:40:33;;;;;;;7.53;3.40;;;-1.20;99.90;;;;;;4995704;28;20552;-80
2023/03/12 01:43:23;;;;;;;5.97;3.63;;;-1.20;99.90;;;;;;4995256;28;20449;-80
2023/03/12 01:46:19;;;;;;;6.27;3.70;;;-1.10;99.90;;;;;;4995232;28;20484;-81
2023/03/12 01:48:50;;;;;;;7.20;3.77;;;-1.00;99.90;;;;;;4994081;28;20464;-80
2023/03/12 01:51:21;;;;;;;11.17;3.30;;;-1.00;99.90;;;;;;4995087;28;20862;-80
2023/03/12 01:53:50;;;;;;;10.27;5.73;;;-1.10;99.90;;;;;;4995108;28;20484;-80
2023/03/12 01:56:20;;;;;;;7.57;4.00;;;-1.00;99.90;;;;;;4995097;28;20458;-80
2023/03/12 01:58:50;;;;;;;7.90;4.20;;;-0.90;99.90;;;;;;4995039;28;20457;-79
2023/03/12 02:01:18;;;;;;;8.70;4.77;;;-0.90;99.90;;;;;;4994946;28;20446;-79
2023/03/12 02:03:50;;;;;;;9.70;4.00;;;-0.80;99.90;;;;;;4993858;28;20457;-80
2023/03/12 02:06:21;;;;;;;9.33;4.80;;;-0.80;99.90;;;;;;4994848;28;20449;-80
2023/03/12 02:08:50;;;;;;;9.53;5.07;;;-0.80;99.90;;;;;;4994814;28;20797;-80
2023/03/12 02:11:17;;;;;;;11.13;5.63;;;;;;;;;;4994576;28;20485;-79
2023/03/12 02:13:44;;;;;;;9.07;4.37;;;;;;;;;;4994658;28;20819;-79
2023/03/12 02:16:11;;;;;;;8.40;4.67;;;;;;;;;;4994690;28;20453;-79
2023/03/12 02:18:39;;;;;;;9.80;5.07;;;;;;;;;;4993389;28;20449;-79
2023/03/12 02:21:15;;;;;;;9.10;4.70;;;-0.70;99.90;;;;;;4994776;28;20848;-79
2023/03/12 02:23:47;;;;;;;7.10;4.40;;;-0.60;99.90;;;;;;4994571;28;20449;-79
2023/03/12 02:26:17;;;;;;;7.03;4.57;;;-0.60;99.90;;;;;;4994547;28;20456;-80
2023/03/12 02:28:45;;;;;;;6.37;4.23;;;-0.50;99.90;;;;;;4994270;28;20461;-79
2023/03/12 02:31:15;;;;;;;7.60;4.53;;;-0.70;99.90;;;;;;4994167;28;20864;-79
2023/03/12 02:33:42;;;;;;;9.47;4.83;;;;;;;;;;4993222;28;20453;-79
2023/03/12 02:36:10;;;;;;;8.40;3.87;;;;;;;;;;4994409;28;20453;-78
2023/03/12 02:38:40;;;;;;;8.60;4.40;;;-0.40;99.90;;;;;;4993822;28;20449;-78
2023/03/12 02:41:12;;;;;;;6.83;3.73;;;-0.20;99.90;;;;;;4994267;28;20812;-80
2023/03/12 02:43:42;;;;;;;3.70;3.17;;;-0.20;99.90;;;;;;4994003;28;20972;-78
2023/03/12 02:46:09;;;;;;;7.40;3.57;;;;;;;;;;4994269;28;20854;-79
2023/03/12 02:48:36;;;;;;;8.17;4.30;;;;;;;;;;4992948;28;20457;-78
2023/03/12 02:51:03;;;;;;;4.30;3.13;;;;;;;;;;4993961;28;20445;-79
2023/03/12 02:53:30;;;;;;;6.30;3.27;;;;;;;;;;4994021;28;20992;-79
2023/03/12 02:55:58;;;;;;;4.90;3.27;;;;;;;;;;4994017;28;20476;-80
2023/03/12 02:58:25;;;;;;;5.43;2.93;;;;;;;;;;4993934;28;20445;-78
2023/03/12 03:00:53;;;;;;;7.67;3.90;;;-0.20;99.90;;;;;;4993906;28;20452;-79
2023/03/12 03:03:20;;;;;;;8.73;3.00;;;;;;;;;;4992650;28;20456;-80
2023/03/12 03:05:47;;;;;;;4.07;2.87;;;;;;;;;;4993958;28;20445;-79
2023/03/12 03:08:14;;;;;;;5.67;3.10;;;;;;;;;;4993936;28;20441;-80
2023/03/12 03:10:41;;;;;;;4.90;3.40;;;;;;;;;;4993830;28;20528;-79
2023/03/12 03:13:08;;;;;;;5.90;3.47;;;;;;;;;;4993856;28;20497;-79
2023/03/12 03:15:35;;;;;;;5.27;3.27;;;;;;;;;;4993697;28;20457;-79
2023/03/12 03:18:03;;;;;;;7.93;2.90;;;0.10;99.90;;;;;;4992550;28;20520;-78
2023/03/12 03:20:31;;;;;;;4.90;3.13;;;;;;;;;;4993608;28;20540;-80
2023/03/12 03:22:58;;;;;;;3.43;2.90;;;;;;;;;;4993638;28;20948;-79
2023/03/12 03:25:25;;;;;;;6.23;3.43;;;;;;;;;;4993423;28;20784;-80
2023/03/12 03:27:52;;;;;;;4.27;2.70;;;;;;;;;;4993727;28;20449;-79
2023/03/12 03:30:20;;;;;;;5.33;2.93;;;;;;;;;;4993471;28;20477;-79
2023/03/12 03:32:47;;;;;;;3.30;2.20;;;0.30;99.90;;;;;;4991907;28;20497;-79
2023/03/12 03:35:16;;;;;;;5.30;2.97;;;;;;;;;;4993479;28;20890;-79
2023/03/12 03:37:43;;;;;;;7.97;3.13;;;;;;;;;;4993485;28;20457;-79
2023/03/12 03:40:11;;;;;;;4.63;2.47;;;0.50;99.90;;;;;;4993589;28;20956;-79
2023/03/12 03:42:39;;;;;;;3.53;2.10;;;;;;;;;;4993358;28;20449;-78
2023/03/12 03:45:08;;;;;;;2.03;1.90;;;0.60;99.90;;;;;;4993440;28;20473;-79
2023/03/12 03:47:35;;;;;;;5.10;2.90;;;;;;;;;;4992198;28;20449;-79
2023/03/12 03:50:02;;;;;;;6.20;2.20;;;;;;;;;;4993414;28;20456;-79
2023/03/12 03:52:31;;;;;;;2.17;1.97;;;0.90;99.90;;;;;;4996173;28;20512;-79
2023/03/12 03:54:58;;;;;;;2.47;1.80;;;;;;;;;;4997412;28;20453;-79
2023/03/12 03:57:25;;;;;;;4.80;0.97;;;;;;;;;;4997344;28;20461;-79
2023/03/12 03:59:52;;;;;;;4.47;2.47;;;;;;;;;;4997200;28;20456;-80
2023/03/12 04:02:19;;;;;;;1.30;1.10;;;;;;;;;;4996593;28;20456;-79
2023/03/12 04:04:46;;;;;;;2.90;2.80;;;;;;;;;;4996933;28;20469;-79
2023/03/12 04:07:13;;;;;;;5.53;2.23;;;;;;;;;;5004908;28;20464;-79
2023/03/12 04:09:42;;;;;;;5.37;2.20;;;;;;;;;;5016704;28;20456;-81
2023/03/12 04:12:09;;;;;;;2.27;1.03;;;;;;;;;;5016458;28;20484;-78
2023/03/12 04:14:39;;;;;;;3.27;1.50;;;1.30;99.90;;;;;;5016500;28;20463;-79
2023/03/12 04:17:06;;;;;;;1.27;1.17;;;;;;;;;;5016559;28;20457;-80
2023/03/12 04:19:33;;;;;;;9.07;2.77;;;;;;;;;;5015185;28;20452;-80
2023/03/12 04:22:00;;;;;;;2.23;1.90;;;;;;;;;;5016532;28;20796;-80
2023/03/12 04:24:28;;;;;;;4.17;1.70;;;;;;;;;;5016435;28;20833;-78
2023/03/12 04:26:57;;;;;;;1.03;0.93;;;1.50;99.90;;;;;;5016432;28;20452;-80
2023/03/12 04:29:24;;;;;;;2.00;1.60;;;;;;;;;;5016356;28;20477;-82
2023/03/12 04:31:51;;;;;;;2.10;1.90;;;;;;;;;;5016284;28;20456;-79
2023/03/12 04:34:18;;;;;;;4.77;3.30;;;;;;;;;;5014896;28;20460;-78
2023/03/12 04:36:46;;;;;;;2.17;1.97;;;;;;;;;;5016338;28;20813;-80
2023/03/12 04:39:13;;;;;;;3.43;2.10;;;;;;;;;;5016213;28;20871;-80
2023/03/12 04:41:40;;;;;;;6.03;2.93;;;;;;;;;;5016098;28;20456;-80
2023/03/12 04:44:09;;;;;;;6.03;3.10;;;1.70;99.90;;;;;;5015993;28;20444;-79
2023/03/12 04:46:36;;;;;;;2.67;2.30;;;;;;;;;;5016071;28;20457;-80
2023/03/12 04:49:03;;;;;;;1.83;1.60;;;;;;;;;;5014733;28;20444;-80
2023/03/12 04:51:30;;;;;;;2.90;1.80;;;;;;;;;;5015906;28;20468;-79
2023/03/12 04:53:57;;;;;;;2.53;1.80;;;;;;;;;;5015966;28;20495;-78
2023/03/12 04:56:24;;;;;;;2.13;1.93;;;;;;;;;;5018312;28;20503;-79
2023/03/12 04:58:52;;;;;;;2.93;2.03;;;;;;;;;;5015722;28;20459;-81
2023/03/12 05:01:24;;;;;;;2.80;1.60;;;1.80;99.90;;;;;;5015484;28;20459;-80
2023/03/12 05:03:51;;;;;;;0.50;0.50;;;;;;;;;;5014040;28;20467;-79
2023/03/12 05:06:18;;;;;;;5.03;2.10;;;;;;;;;;5015620;28;20453;-78
2023/03/12 05:08:45;;;;;;;3.03;2.00;;;;;;;;;;5015561;28;20464;-80
2023/03/12 05:11:13;;;;;;;3.70;2.80;;;;;;;;;;5015397;28;20452;-78
2023/03/12 05:13:40;;;;;;;3.83;3.00;;;;;;;;;;5015397;28;20567;-78
2023/03/12 05:16:07;;;;;;;5.20;3.33;;;;;;;;;;5015565;28;20479;-80
2023/03/12 05:18:36;;;;;;;5.43;4.00;;;2.00;99.90;;;;;;5014153;28;20460;-79
2023/03/12 05:21:05;;;;;;;1.60;1.37;;;2.00;99.90;;;;;;5015442;28;20457;-79
2023/03/12 05:23:33;;;;;;;3.27;2.20;;;2.00;99.90;;;;;;5015363;28;20937;-79
2023/03/12 05:26:00;;;;;;;1.73;1.27;;;;;;;;;;5015323;28;20463;-79
2023/03/12 05:28:27;;;;;;;3.60;2.17;;;;;;;;;;5015091;28;20449;-79
2023/03/12 05:30:55;;;;;;;10.00;4.03;;;2.00;99.90;;;;;;5015055;28;20480;-79
2023/03/12 05:33:22;;;;;;;5.87;2.50;;;;;;;;;;5013875;28;20503;-80
2023/03/12 05:35:51;;;;;;;4.70;3.03;;;1.90;99.90;;;;;;5015196;28;20459;-79
2023/03/12 05:38:18;;;;;;;3.60;2.30;;;;;;;;;;5015112;28;20479;-80
2023/03/12 05:40:52;;;;;;;8.13;3.90;;;1.90;99.90;;;;;;5015148;28;20809;-79
2023/03/12 05:43:19;;;;;;;4.73;2.90;;;;;;;;;;5015007;28;20444;-80
2023/03/12 05:45:46;;;;;;;4.10;3.23;;;;;;;;;;5014984;28;20528;-79
2023/03/12 05:48:13;;;;;;;6.40;3.10;;;;;;;;;;5013707;28;20817;-82
2023/03/12 05:50:40;;;;;;;3.70;2.83;;;;;;;;;;5014479;28;20448;-79
2023/03/12 05:53:09;;;;;;;3.80;2.70;;;2.00;99.90;;;;;;5014790;28;20500;-80
2023/03/12 05:55:36;;;;;;;3.23;2.43;;;;;;;;;;5014566;28;20979;-79
2023/03/12 05:58:04;;;;;;;4.50;2.83;;;2.00;99.90;;;;;;5013196;28;20444;-79
2023/03/12 06:00:31;;;;;;;5.53;2.97;;;;;;;;;;5014340;28;20447;-79
2023/03/12 06:02:58;;;;;;;4.00;2.93;;;;;;;;;;5013112;28;20781;-79
2023/03/12 06:05:25;;;;;;;3.47;3.17;;;;;;;;;;5014451;28;20448;-79
2023/03/12 06:07:53;;;;;;;7.40;3.40;;;;;;;;;;5014583;28;20460;-79
2023/03/12 06:10:21;;;;;;;5.10;3.67;;;2.00;99.90;;;;;;5014441;28;20444;-79
2023/03/12 06:12:48;;;;;;;8.93;3.70;;;;;;;;;;5014278;28;21011;-80
2023/03/12 06:15:15;;;;;;;9.50;4.17;;;;;;;;;;5013493;28;20452;-79
2023/03/12 06:17:42;;;;;;;4.20;3.60;;;;;;;;;;5013084;28;20457;-82
2023/03/12 06:20:10;;;;;;;5.50;3.73;;;2.00;99.90;;;;;;5014237;28;20452;-79
2023/03/12 06:22:37;;;;;;;5.77;4.13;;;;;;;;;;5014071;28;20459;-79
2023/03/12 06:25:05;;;;;;;5.00;3.57;;;1.90;99.90;;;;;;5014063;28;20955;-81
2023/03/12 06:27:33;;;;;;;4.60;3.20;;;1.80;99.90;;;;;;5013988;28;20457;-80
2023/03/12 06:30:00;;;;;;;10.00;4.20;;;;;;;;;;5013835;28;20481;-79
2023/03/12 06:32:27;;;;;;;7.70;3.87;;;;;;;;;;5012705;28;20448;-79
2023/03/12 06:34:54;;;;;;;8.40;4.60;;;;;;;;;;5013974;28;20456;-79
2023/03/12 06:37:21;;;;;;;5.80;4.10;;;;;;;;;;5013797;28;20448;-79
2023/03/12 06:39:48;;;;;;;8.03;4.97;;;;;;;;;;5013840;28;20452;-79
2023/03/12 06:42:16;;;;;;;10.87;5.70;;;;;;;;;;5013797;28;20448;-78
2023/03/12 06:44:44;;;;;;;6.20;4.63;;;1.80;99.90;;;;;;5013877;28;20458;-78
2023/03/12 06:47:11;;;;;;;5.93;4.20;;;;;;;;;;5012278;28;20449;-80
2023/03/12 06:49:38;;;;;;;6.80;4.40;;;;;;;;;;5012446;28;20944;-79
2023/03/12 06:52:06;;;;;;;5.10;3.97;;;;;;;;;;5013565;28;20472;-80
2023/03/12 06:54:33;;;;;;;6.13;4.10;;;;;;;;;;5013682;28;21022;-80
2023/03/12 06:57:00;;;;;;;7.33;4.20;;;;;;;;;;5014932;28;20483;-83
2023/03/12 06:59:28;;;;;;;4.97;4.40;;;;;;;;;;5013695;28;20449;-84
2023/03/12 07:01:56;;;;;;;6.43;3.70;;;1.80;99.90;;;;;;5013538;28;20952;-84
2023/03/12 07:04:23;;;;;;;4.67;3.90;;;;;;;;;;5012247;28;20456;-84
2023/03/12 07:06:50;;;;;;;6.17;3.47;;;;;;;;;;5013602;28;20456;-84
2023/03/12 07:09:17;;;;;;;4.20;2.50;;;;;;;;;;5013716;28;20452;-80
2023/03/12 07:11:45;;;;;;;6.63;1.87;;;;;;;;;;5013491;28;20448;-83
2023/03/12 07:14:12;;;;;;;2.03;1.83;;;;;;;;;;5013352;28;21004;-79
2023/03/12 07:16:39;;;;;;;3.23;2.30;;;;;;;;;;5013230;28;20783;-80
2023/03/12 07:19:07;;;;;;;6.80;3.80;;;1.70;99.90;;;;;;5009083;28;20448;-81
2023/03/12 07:21:34;;;;;;;3.70;2.80;;;;;;;;;;5013454;28;20459;-81
2023/03/12 07:24:05;;;;;;;5.90;3.87;;;;;;;;;;5013482;28;20456;-81
2023/03/12 07:26:32;;;;;;;3.43;2.10;;;;;;;;;;5013077;28;20460;-81
2023/03/12 07:29:00;;;;;;;4.27;2.40;;;;;;;;;;5013307;28;20452;-85
2023/03/12 07:31:27;;;;;;;2.90;2.43;;;;;;;;;;5013183;28;20448;-83
2023/03/12 07:33:54;;;;;;;4.70;2.60;;;;;;;;;;5011649;28;20495;-81
2023/03/12 07:36:22;;;;;;;3.70;1.83;;;;;;;;;;5013113;28;20451;-83
2023/03/12 07:38:49;;;;;;;2.70;2.33;;;;;;;;;;5013157;28;20456;-82
2023/03/12 07:41:16;;;;;;;2.97;2.63;;;;;;;;;;5013148;28;20448;-81
2023/03/12 07:43:43;;;;;;;1.37;1.27;;;;;;;;;;5013000;28;20444;-80
2023/03/12 07:46:10;;;;;;;3.60;2.00;;;;;;;;;;5012979;28;20817;-83
2023/03/12 07:48:38;;;;;;;4.37;2.70;;;;;;;;;;5011801;28;20940;-82
2023/03/12 07:51:06;;;;;;;1.80;1.53;;;2.30;99.90;;;;;;5013057;28;20908;-87
2023/03/12 07:53:34;;;;;;;1.80;1.50;;;2.50;99.90;;;;;;5012821;28;20496;-82
2023/03/12 07:56:01;;;;;;;1.47;0.73;;;;;;;;;;5013049;28;20469;-84
2023/03/12 07:58:28;;;;;;;1.60;1.33;;;;;;;;;;5012761;28;20460;-86
2023/03/12 08:00:55;;;;;;;3.43;2.70;;;;;;;;;;5012751;28;20456;-83
2023/03/12 08:03:23;;;;;;;3.53;1.33;;;;;;;;;;5011610;28;20456;-84
2023/03/12 08:05:59;;;;;;;1.70;1.40;;;3.00;99.90;;;;;;5012824;28;20448;-82
2023/03/12 08:08:26;;;;;;;1.33;1.23;;;;;;;;;;5012799;28;20463;-82
2023/03/12 08:10:55;;;;;;;3.40;2.00;;;;;;;;;;5012737;28;20460;-87
2023/03/12 08:13:23;;;;;;;1.27;1.17;;;;;;;;;;5012464;28;20995;-81
2023/03/12 08:15:50;;;;;;;2.07;1.47;;;;;;;;;;5012882;28;20882;-83
2023/03/12 08:18:17;;;;;;;2.63;2.10;;;;;;;;;;5011693;28;20453;-86
2023/03/12 08:20:44;;;;;;;5.67;2.53;;;;;;;;;;5012724;28;20967;-85
2023/03/12 08:23:11;;;;;;;3.80;2.80;;;;;;;;;;5012665;28;20807;-82
2023/03/12 08:25:38;;;;;;;2.97;2.50;;;;;;;;;;5012652;28;20813;-83
2023/03/12 08:28:07;;;;;;;2.70;2.47;;;;;;;;;;5012686;28;20523;-84
2023/03/12 08:30:34;;;;;;;1.40;1.30;;;;;;;;;;5012399;28;20476;-84
2023/03/12 08:33:01;;;;;;;1.33;1.23;;;;;;;;;;5011348;28;20445;-83
2023/03/12 08:35:29;;;;;;;2.00;1.80;;;;;;;;;;5012622;28;20449;-83
2023/03/12 08:37:56;;;;;;;3.80;2.20;;;;;;;;;;5014237;28;20527;-84
2023/03/12 08:40:27;;;;;;;4.73;2.93;;;;;;;;;;5015960;28;20495;-84
2023/03/12 08:42:54;;;;;;;3.83;2.97;;;;;;;;;;5016009;28;20479;-86
2023/03/12 08:45:22;;;;;;;12.90;2.77;;;;;;;;;;5016194;28;20456;-84
2023/03/12 08:47:49;;;;;;;8.50;5.80;;;;;;;;;;5014755;28;20463;-87
2023/03/12 08:50:17;;;;;;;5.27;3.03;;;;;;;;;;5015871;28;20503;-85
2023/03/12 08:52:44;;;;;;;10.00;6.23;;;;;;;;;;5016325;28;20534;-90
2023/03/12 08:55:11;;;;;;;2.67;2.37;;;;;;;;;;5016059;28;20523;-90
2023/03/12 08:57:39;;;;;;;10.17;5.10;;;;;;;;;;5016529;28;20441;-91
2023/03/12 09:00:10;;;;;;;1.60;1.50;;;;;;;;;;5016298;28;20448;-83
2023/03/12 09:02:39;;;;;;;2.50;2.10;;;;;;;;;;5014679;28;20452;-88
2023/03/12 09:05:07;;;;;;;3.53;3.23;;;;;;;;;;5016105;28;20532;-83
2023/03/12 09:07:34;;;;;;;3.80;3.17;;;;;;;;;;5015728;28;20455;-86
2023/03/12 09:10:01;;;;;;;4.23;3.30;;;;;;;;;;5015642;28;20448;-86
2023/03/12 09:12:28;;;;;;;7.33;4.80;;;;;;;;;;5015633;28;20448;-83
2023/03/12 09:14:55;;;;;;;3.60;2.50;;;;;;;;;;5015434;28;20488;-85
2023/03/12 09:17:22;;;;;;;6.53;4.57;;;;;;;;;;5014693;28;20523;-85
2023/03/12 09:19:51;;;;;;;7.17;5.60;;;;;;;;;;5015297;28;20456;-85
2023/03/12 09:22:18;;;;;;;6.60;4.83;;;;;;;;;;5015215;28;20456;-79
2023/03/12 09:24:45;;;;;;;7.17;4.83;;;;;;;;;;5015488;28;20452;-84
2023/03/12 09:27:12;;;;;;;36.80;32.97;;;;;;;;;;5015159;28;20452;-84
2023/03/12 09:29:40;;;;;;;24.20;22.10;;;;;;;;;;5015183;28;20480;-84
2023/03/12 09:32:08;;;;;;;139.37;61.60;;;;;;;;;;5015123;28;20456;-84
2023/03/12 09:34:35;;;;;;;129.20;60.03;;;;;;;;;;5013720;28;20560;-83
2023/03/12 09:37:03;;;;;;;72.70;45.10;;;;;;;;;;5015202;28;20467;-87
2023/03/12 09:39:30;;;;;;;11.13;8.43;;;;;;;;;;5015123;28;20455;-84
2023/03/12 09:41:57;;;;;;;6.90;3.87;;;;;;;;;;5014964;28;20448;-83
2023/03/12 09:44:31;;;;;;;11.77;2.50;;;;;;;;;;5014869;28;20455;-85
2023/03/12 09:46:59;;;;;;;4.37;3.63;;;;;;;;;;5014437;28;20448;-83
2023/03/12 09:49:30;;;;;;;4.37;3.33;;;;;;;;;;5013361;28;20472;-84
2023/03/12 09:51:59;;;;;;;8.30;3.53;;;;;;;;;;5014710;28;20448;-86
2023/03/12 09:54:33;;;;;;;3.60;2.10;;;;;;;;;;5014304;28;20507;-85
2023/03/12 09:57:03;;;;;;;3.40;2.47;;;;;;;;;;5014751;28;20463;-85
2023/03/12 09:59:34;;;;;;;5.00;2.97;;;;;;;;;;5014818;28;20450;-88
2023/03/12 10:02:03;;;;;;;2.40;1.73;;;;;;;;;;5014760;28;20460;-87
2023/03/12 10:04:39;;;;;;;2.97;2.67;;;;;;;;;;5013595;28;20945;-85
2023/03/12 10:07:10;;;;;;;2.27;1.50;;;;;;;;;;5014796;28;20510;-86
2023/03/12 10:09:45;;;;;;;2.50;1.60;;;;;;;;;;5014798;28;20452;-86
2023/03/12 10:12:17;;;;;;;2.10;1.07;;;;;;;;;;5014417;28;20474;-88
2023/03/12 10:14:51;;;;;;;3.47;2.40;;;;;;;;;;5014378;28;20492;-86
2023/03/12 10:17:30;;;;;;;2.33;1.77;;;;;;;;;;5014270;28;20936;-87
2023/03/12 10:20:06;;;;;;;1.47;1.33;;;;;;;;;;5014192;28;20452;-86
2023/03/12 10:22:46;;;;;;;1.23;0.70;;;8.30;99.90;;;;;;5014078;28;20464;-87
2023/03/12 10:25:17;;;;;;;2.17;1.43;;;;;;;;;;5014363;28;20470;-85
2023/03/12 10:27:44;;;;;;;0.80;0.80;;;;;;;;;;5014238;28;20456;-79
2023/03/12 10:30:18;;;;;;;4.40;2.07;;;8.40;99.90;;;;;;5013930;28;20488;-87
2023/03/12 10:32:49;;;;;;;2.40;1.60;;;8.50;99.90;;;;;;5012699;28;20464;-81
2023/03/12 10:35:18;;;;;;;3.17;1.70;;;8.70;99.90;;;;;;5013847;28;20505;-87
2023/03/12 10:37:49;;;;;;;2.10;1.13;;;8.40;99.90;;;;;;5013477;28;20459;-83
2023/03/12 10:40:19;;;;;;;3.27;1.23;;;8.10;99.90;;;;;;5013734;28;20820;-81
2023/03/12 10:42:46;;;;;;;0.97;0.90;;;;;;;;;;5013664;28;20456;-85
2023/03/12 10:45:29;;;;;;;1.73;1.00;;;8.00;99.90;;;;;;5013908;28;20444;-82
2023/03/12 10:48:01;;;;;;;0.97;0.87;;;9.00;99.90;;;;;;5012649;28;20492;-82
2023/03/12 10:50:30;;;;;;;2.00;1.20;;;8.10;99.90;;;;;;5013590;28;20472;-81
2023/03/12 10:53:14;;;;;;;2.87;2.40;;;8.30;99.90;;;;;;5013661;28;20456;-81
2023/03/12 10:55:43;;;;;;;4.70;3.10;;;;;;;;;;5013512;28;20991;-83
2023/03/12 10:58:22;;;;;;;2.73;1.73;;;;;;;;;;5013435;28;20452;-84
2023/03/12 11:00:55;;;;;;;2.90;2.23;;;;;;;;;;5013087;28;20453;-81
2023/03/12 11:03:22;;;;;;;2.97;2.17;;;;;;;;;;5012269;28;20452;-81
2023/03/12 11:05:51;;;;;;;1.57;1.07;;;;;;;;;;5013198;28;20448;-84
2023/03/12 11:08:22;;;;;;;1.47;1.10;;;;;;;;;;5013486;28;20448;-80
2023/03/12 11:13:26;;;;;;;5.10;4.00;;;;;;;;;;5091738;27;20548;-81
2023/03/12 11:15:53;;;;;;;3.60;2.53;;;;;;;;;;5091376;28;20444;-81
2023/03/12 11:18:35;;;;;;;2.57;2.00;;;10.00;99.90;;;;;;5090212;28;20437;-81
2023/03/12 11:21:17;;;;;;;8.20;5.97;;;;;;;;;;5091182;28;20940;-82
2023/03/12 11:23:47;;;;;;;1.40;1.10;;;10.10;99.90;;;;;;5091057;28;20449;-80
2023/03/12 11:26:15;;;;;;;8.93;3.40;;;;;;;;;;5090853;28;20540;-77
2023/03/12 11:28:45;;;;;;;3.30;1.73;;;;;;;;;;5090698;28;20516;-79
2023/03/12 11:31:16;;;;;;;2.90;1.20;;;;;;;;;;5090852;28;21066;-79
2023/03/12 11:33:43;;;;;;;3.47;2.10;;;;;;;;;;5089723;28;20456;-79
2023/03/12 11:36:29;;;;;;;9.27;3.37;;;9.70;99.90;;;;;;5090852;28;20803;-82
2023/03/12 11:39:03;;;;;;;7.03;1.90;;;9.50;99.90;;;;;;5090722;28;20543;-81
2023/03/12 11:41:39;;;;;;;4.97;1.23;;;9.60;99.90;;;;;;5091180;28;20509;-81
2023/03/12 11:44:27;;;;;;;12.83;5.57;;;9.70;99.90;;;;;;5091444;28;20470;-79
2023/03/12 11:47:04;;;;;;;6.40;3.43;;;;;;;;;;5105731;28;20456;-85
2023/03/12 11:49:40;;;;;;;1.87;1.50;;;;;;;;;;5090197;28;20468;-81
2023/03/12 11:52:13;;;;;;;1.63;1.53;;;;;;;;;;5089958;28;20449;-79
2023/03/12 11:54:58;;;;;;;2.20;2.00;;;;;;;;;;5090027;28;20445;-81
2023/03/12 11:57:32;;;;;;;1.40;1.30;;;10.20;99.90;;;;;;5089857;28;20456;-81
2023/03/12 12:00:11;;;;;;;12.03;3.20;;;10.10;99.90;;;;;;5089906;28;20797;-81
2023/03/12 12:02:47;;;;;;;11.50;9.43;;;;;;;;;;5088313;28;20537;-80
2023/03/12 12:05:26;;;;;;;2.30;1.27;;;9.80;99.90;;;;;;5089742;28;20943;-83
2023/03/12 12:08:00;;;;;;;2.60;1.63;;;;;;;;;;5090136;28;20436;-82
2023/03/12 12:10:31;;;;;;;2.07;1.40;;;10.10;99.90;;;;;;5089778;28;20449;-82
2023/03/12 12:13:03;;;;;;;1.63;1.00;;;;;;;;;;5089546;28;20481;-83
2023/03/12 12:15:38;;;;;;;3.47;0.93;;;10.50;99.90;;;;;;5090164;28;20468;-83
2023/03/12 12:18:12;;;;;;;9.80;5.50;;;;;;;;;;5086726;28;20794;-82
2023/03/12 12:20:44;;;;;;;1.80;0.90;;;;;;;;;;5089842;28;20460;-83
